Time;durP1;ratioP1;P1;durP2;ratioP2;P2;SDS_P1;SDS_P2;PMS_P1;PMS_P2;Temp;Humidity;BMP_temperature;BMP_pressure;BME280_temperature;BME280_humidity;BME280_pressure;Samples;Min_cycle;Max_cycle;Signal;HPM_P1;HPM_P2
2021/08/17 00:02:15;;;;;;;10.90;6.78;;;;;;;19.29;92.51;98372.03;4009159;86;21099;-85
2021/08/17 00:08:17;;;;;;;14.83;5.80;;;;;;;19.21;92.49;98333.23;4051782;85;21052;-86
2021/08/17 00:14:18;;;;;;;10.03;5.03;;;;;;;19.19;93.01;98314.86;4037823;85;22506;-86
2021/08/17 00:20:20;;;;;;;11.22;4.83;;;;;;;19.17;92.87;98298.52;4037258;86;21020;-86
2021/08/17 00:26:21;;;;;;;9.18;5.10;;;;;;;19.15;93.09;98280.92;4063721;85;21616;-85
2021/08/17 00:32:22;;;;;;;11.57;5.70;;;;;;;19.13;93.35;98291.69;4049559;85;21407;-85
2021/08/17 00:38:24;;;;;;;7.90;5.10;;;;;;;19.06;93.10;98301.63;4029519;85;21550;-85
2021/08/17 00:44:28;;;;;;;8.43;4.72;;;;;;;18.96;93.16;98343.59;4002922;86;21557;-85
2021/08/17 00:50:34;;;;;;;8.70;4.67;;;;;;;18.73;92.84;98360.74;4019383;86;21103;-83
2021/08/17 00:56:38;;;;;;;12.07;3.33;;;;;;;18.48;92.36;98392.61;4056688;85;21034;-84
2021/08/17 01:02:46;;;;;;;12.43;3.42;;;;;;;18.09;91.73;98417.86;4025015;86;21548;-82
2021/08/17 01:08:49;;;;;;;9.33;2.72;;;;;;;17.88;92.10;98443.39;4042251;86;21091;-85
2021/08/17 01:14:51;;;;;;;9.98;2.95;;;;;;;17.75;92.36;98446.69;4047844;86;21540;-84
2021/08/17 01:20:56;;;;;;;8.23;3.42;;;;;;;17.63;92.46;98429.42;4042556;85;21496;-84
2021/08/17 01:26:58;;;;;;;7.60;3.30;;;;;;;17.72;92.80;98409.41;4045220;86;21440;-83
2021/08/17 01:32:59;;;;;;;5.70;3.12;;;;;;;17.72;92.69;98417.72;4048323;86;21038;-82
2021/08/17 01:39:01;;;;;;;6.00;3.37;;;;;;;17.62;91.85;98416.02;4051401;85;21186;-84
2021/08/17 01:45:04;;;;;;;7.83;3.00;;;;;;;17.41;92.06;98437.27;4054212;85;21019;-83
2021/08/17 01:51:06;;;;;;;6.15;3.25;;;;;;;17.53;92.98;98437.38;4043987;86;21063;-84
2021/08/17 01:57:07;;;;;;;7.97;3.60;;;;;;;17.39;92.27;98439.69;4043588;86;21009;-82
2021/08/17 02:03:09;;;;;;;13.55;5.12;;;;;;;17.37;92.97;98431.06;4046331;86;21119;-82
2021/08/17 02:09:10;;;;;;;8.28;5.30;;;;;;;17.07;92.71;98447.37;4040889;86;21130;-82
2021/08/17 02:15:11;;;;;;;8.10;4.25;;;;;;;17.03;93.36;98446.09;4048185;85;21124;-82
2021/08/17 02:21:12;;;;;;;10.32;4.42;;;;;;;17.19;94.21;98429.48;4051729;86;21063;-82
2021/08/17 02:27:14;;;;;;;11.50;7.10;;;;;;;17.39;94.40;98418.94;4052015;85;21047;-82
2021/08/17 02:33:15;;;;;;;11.38;5.85;;;;;;;17.43;94.25;98418.26;4044308;85;21498;-82
2021/08/17 02:39:17;;;;;;;8.45;5.42;;;;;;;17.28;93.59;98397.67;4040472;86;21048;-81
2021/08/17 02:45:19;;;;;;;11.83;5.78;;;;;;;17.26;93.76;98407.80;4043549;86;21094;-82
2021/08/17 02:51:20;;;;;;;7.30;4.08;;;;;;;17.06;93.56;98423.70;4044344;86;21126;-81
2021/08/17 02:57:23;;;;;;;9.48;3.62;;;;;;;16.99;93.30;98444.63;4050690;86;21085;-81
2021/08/17 03:03:25;;;;;;;7.28;3.52;;;;;;;16.81;93.58;98452.52;4054470;86;21037;-81
2021/08/17 03:09:26;;;;;;;6.62;3.70;;;;;;;16.73;93.63;98427.62;4050111;86;21664;-82
2021/08/17 03:15:32;;;;;;;5.75;3.87;;;;;;;16.70;93.85;98443.69;4042778;86;21066;-82
2021/08/17 03:21:33;;;;;;;5.65;3.72;;;;;;;16.70;94.06;98457.50;4039138;85;21126;-82
2021/08/17 03:27:35;;;;;;;5.97;3.00;;;;;;;16.82;94.30;98449.33;4025916;86;21067;-81
2021/08/17 03:33:37;;;;;;;9.20;4.22;;;;;;;16.75;93.85;98463.91;4035068;85;21046;-81
2021/08/17 03:39:39;;;;;;;7.37;3.72;;;;;;;16.66;94.11;98464.48;4049325;86;21519;-82
2021/08/17 03:45:40;;;;;;;11.10;4.10;;;;;;;16.70;95.00;98467.97;4042294;86;21178;-82
2021/08/17 03:51:41;;;;;;;8.38;4.00;;;;;;;16.77;94.54;98478.09;4047588;86;21528;-82
2021/08/17 03:57:43;;;;;;;7.78;3.95;;;;;;;16.76;94.47;98481.45;4035904;86;21146;-82
2021/08/17 04:03:44;;;;;;;12.65;3.92;;;;;;;16.78;94.93;98487.94;4036289;86;21067;-83
2021/08/17 04:09:48;;;;;;;7.78;3.55;;;;;;;16.71;94.63;98486.09;4038096;86;21131;-84
2021/08/17 04:15:50;;;;;;;8.25;4.47;;;;;;;16.62;94.67;98498.92;4036421;86;21031;-85
2021/08/17 04:21:51;;;;;;;8.65;3.33;;;;;;;16.64;94.90;98488.23;4050163;86;21079;-85
2021/08/17 04:27:52;;;;;;;9.13;4.05;;;;;;;16.72;95.44;98511.75;4039899;86;21551;-85
2021/08/17 04:33:54;;;;;;;11.53;4.10;;;;;;;16.87;95.88;98526.23;4054024;85;21737;-83
2021/08/17 04:39:55;;;;;;;14.63;5.12;;;;;;;16.92;95.31;98542.31;4046238;86;21038;-84
2021/08/17 04:45:56;;;;;;;6.75;3.70;;;;;;;16.85;94.99;98530.64;4037509;86;21044;-83
2021/08/17 04:51:58;;;;;;;9.13;3.42;;;;;;;16.76;94.71;98518.77;4020288;86;21042;-83
2021/08/17 04:58:00;;;;;;;7.53;3.10;;;;;;;16.68;94.50;98491.69;4029951;86;21044;-84
2021/08/17 05:04:04;;;;;;;7.30;3.12;;;;;;;16.72;95.75;98495.96;4038431;86;21500;-84
2021/08/17 05:10:16;;;;;;;6.03;3.52;;;;;;;16.86;95.49;98507.31;4042391;86;21635;-84
2021/08/17 05:16:17;;;;;;;8.43;4.12;;;;;;;16.83;94.99;98508.16;4041191;86;21838;-84
2021/08/17 05:22:18;;;;;;;10.35;4.42;;;;;;;16.79;95.69;98505.47;4036268;86;21449;-83
2021/08/17 05:28:20;;;;;;;9.30;3.85;;;;;;;16.90;95.98;98518.46;4040909;86;21024;-84
2021/08/17 05:34:21;;;;;;;9.58;4.97;;;;;;;16.95;95.68;98544.23;4040344;86;22212;-83
2021/08/17 05:40:23;;;;;;;8.55;4.53;;;;;;;16.96;95.25;98560.22;4028399;86;21079;-85
2021/08/17 05:46:24;;;;;;;11.88;5.17;;;;;;;16.87;95.61;98573.81;4033385;86;21567;-84
2021/08/17 05:52:25;;;;;;;8.43;4.67;;;;;;;16.85;95.70;98584.55;4037400;86;21036;-85
2021/08/17 05:58:27;;;;;;;15.43;5.50;;;;;;;16.77;95.72;98585.89;4050521;85;21008;-85
2021/08/17 06:04:29;;;;;;;10.98;5.30;;;;;;;16.73;95.71;98590.69;4044837;86;21112;-84
2021/08/17 06:10:30;;;;;;;13.10;5.75;;;;;;;16.71;95.82;98592.50;4043997;86;21071;-85
2021/08/17 06:16:33;;;;;;;16.55;7.35;;;;;;;16.62;95.85;98585.38;4041319;86;21559;-83
2021/08/17 06:22:35;;;;;;;15.10;5.37;;;;;;;16.64;95.78;98582.19;4034998;86;21027;-83
2021/08/17 06:28:36;;;;;;;13.20;7.58;;;;;;;16.57;95.89;98588.63;4042739;86;21083;-84
2021/08/17 06:34:38;;;;;;;8.15;3.35;;;;;;;16.35;95.86;98591.58;4044903;86;21032;-84
2021/08/17 06:40:39;;;;;;;9.53;3.67;;;;;;;16.14;95.45;98610.52;4050854;86;21035;-84
2021/08/17 06:46:40;;;;;;;12.40;6.87;;;;;;;15.97;95.57;98624.81;4022950;86;21115;-85
2021/08/17 06:52:43;;;;;;;11.90;6.85;;;;;;;15.97;95.72;98635.86;4039378;86;21687;-83
2021/08/17 06:58:44;;;;;;;9.93;5.97;;;;;;;15.96;95.68;98652.22;4044397;86;22353;-83
2021/08/17 07:04:46;;;;;;;14.55;6.90;;;;;;;15.99;95.41;98663.04;4047815;85;21058;-83
2021/08/17 07:10:47;;;;;;;11.53;6.15;;;;;;;15.98;95.68;98674.67;4041759;86;21016;-84
2021/08/17 07:16:49;;;;;;;7.05;4.45;;;;;;;15.71;94.75;98685.55;4038091;86;21051;-84
2021/08/17 07:22:50;;;;;;;8.38;4.37;;;;;;;15.39;94.10;98702.53;4047593;86;21541;-85
2021/08/17 07:28:51;;;;;;;8.23;3.98;;;;;;;15.22;94.61;98716.67;4045865;85;21042;-84
2021/08/17 07:34:53;;;;;;;7.92;2.92;;;;;;;15.13;94.64;98739.03;4066227;85;21159;-82
2021/08/17 07:40:54;;;;;;;6.28;2.98;;;;;;;14.94;94.22;98758.34;4043673;86;21102;-83
2021/08/17 07:46:56;;;;;;;6.42;3.85;;;;;;;14.78;94.28;98772.48;4041552;86;21068;-82
2021/08/17 07:52:58;;;;;;;9.80;5.08;;;;;;;14.71;94.34;98772.53;4039158;86;21024;-81
2021/08/17 07:58:59;;;;;;;4.95;2.42;;;;;;;14.52;94.40;98780.77;4036612;86;21044;-82
2021/08/17 08:05:01;;;;;;;4.70;2.60;;;;;;;14.22;93.85;98812.22;4040583;87;21072;-81
2021/08/17 08:11:04;;;;;;;5.53;3.08;;;;;;;14.13;94.27;98829.20;4039217;86;21092;-84
2021/08/17 08:17:05;;;;;;;4.00;2.67;;;;;;;13.99;93.87;98829.86;4038968;86;21518;-81
2021/08/17 08:23:07;;;;;;;7.53;2.70;;;;;;;13.87;93.56;98842.70;4044476;86;21535;-81
2021/08/17 08:29:08;;;;;;;5.58;2.70;;;;;;;13.70;93.62;98853.95;4046245;86;21075;-82
2021/08/17 08:35:12;;;;;;;5.95;2.50;;;;;;;13.77;94.41;98855.90;4035696;86;21123;-82
2021/08/17 08:41:16;;;;;;;7.58;2.52;;;;;;;13.89;94.16;98863.13;4105253;83;27681;-82
2021/08/17 08:47:17;;;;;;;7.92;2.87;;;;;;;13.86;94.01;98868.63;4171108;84;21049;-83
2021/08/17 08:53:20;;;;;;;7.75;3.35;;;;;;;13.97;94.21;98879.00;4177599;83;21033;-83
2021/08/17 08:59:21;;;;;;;6.45;3.17;;;;;;;14.07;93.92;98887.23;4106914;85;21082;-86
2021/08/17 09:05:22;;;;;;;8.10;3.42;;;;;;;14.17;94.02;98902.90;4043437;86;21066;-86
2021/08/17 09:11:26;;;;;;;10.13;3.60;;;;;;;14.21;93.62;98908.39;4068498;86;21809;-82
2021/08/17 09:17:27;;;;;;;12.58;4.90;;;;;;;14.19;94.09;98917.64;4102420;85;21074;-82
2021/08/17 09:23:36;;;;;;;9.73;4.25;;;;;;;14.26;93.79;98912.73;4062743;86;21541;-82
2021/08/17 09:29:43;;;;;;;4.90;2.40;;;;;;;14.25;93.51;98909.80;4035923;86;21129;-84
2021/08/17 09:35:45;;;;;;;4.17;1.80;;;;;;;14.11;92.84;98909.22;4062951;86;21580;-84
2021/08/17 09:41:46;;;;;;;5.60;2.33;;;;;;;14.13;92.62;98927.50;4048800;86;21041;-82
2021/08/17 09:47:56;;;;;;;5.92;2.37;;;;;;;14.11;92.64;98930.66;4096407;84;21041;-85
2021/08/17 09:54:20;;;;;;;9.08;2.47;;;;;;;14.22;93.17;98922.34;4031006;86;21011;-82
2021/08/17 10:00:22;;;;;;;6.25;2.20;;;;;;;14.29;93.12;98919.59;4039015;86;21094;-82
2021/08/17 10:06:23;;;;;;;4.33;2.47;;;;;;;14.45;93.22;98918.54;4068373;85;21038;-84
2021/08/17 10:12:25;;;;;;;8.50;2.15;;;;;;;14.42;92.61;98941.37;4074819;85;21077;-82
2021/08/17 10:18:31;;;;;;;7.20;2.85;;;;;;;14.42;92.20;98945.51;4083700;85;21151;-83
2021/08/17 10:24:41;;;;;;;13.73;3.17;;;;;;;14.51;91.88;98948.60;4077445;85;21017;-84
2021/08/17 10:30:42;;;;;;;8.80;2.30;;;;;;;14.60;92.25;98951.69;4076976;85;21104;-82
2021/08/17 10:36:46;;;;;;;6.05;2.58;;;;;;;14.90;92.59;98950.52;4177250;83;21064;-82
2021/08/17 10:42:52;;;;;;;3.42;2.15;;;;;;;15.02;91.85;98948.66;4164876;83;21105;-81
2021/08/17 10:48:58;;;;;;;4.22;1.98;;;;;;;15.08;91.39;98968.32;4172181;83;21068;-83
2021/08/17 10:55:26;;;;;;;7.53;2.10;;;;;;;14.87;90.20;98949.95;4172208;83;21092;-82
2021/08/17 11:01:47;;;;;;;3.85;1.67;;;;;;;14.85;89.90;98959.22;4175849;83;22263;-81
2021/08/17 11:07:48;;;;;;;4.30;2.02;;;;;;;14.77;89.51;98952.17;4158360;83;21624;-81
2021/08/17 11:14:16;;;;;;;4.65;2.02;;;;;;;14.88;88.91;98946.00;4173059;83;21531;-81
2021/08/17 11:20:17;;;;;;;5.97;2.40;;;;;;;14.95;88.59;98950.69;4163311;83;21076;-81
2021/08/17 11:26:24;;;;;;;8.00;2.20;;;;;;;14.96;88.58;98952.24;4169519;83;21827;-82
2021/08/17 11:32:36;;;;;;;4.83;2.47;;;;;;;15.27;88.72;98927.19;4169441;83;21934;-84
2021/08/17 11:38:37;;;;;;;5.83;2.45;;;;;;;15.72;88.51;98936.84;4168820;83;21076;-81
2021/08/17 11:44:39;;;;;;;4.42;2.50;;;;;;;16.06;88.54;98945.33;4168867;83;21043;-81
2021/08/17 11:50:40;;;;;;;4.42;2.30;;;;;;;16.30;88.17;98935.95;4175149;83;21051;-82
2021/08/17 11:56:42;;;;;;;7.40;2.15;;;;;;;16.33;87.84;98939.88;4172709;83;21548;-81
2021/08/17 12:03:03;;;;;;;4.50;2.20;;;;;;;16.50;87.41;98931.98;4167645;83;21028;-81
2021/08/17 12:09:19;;;;;;;4.28;1.80;;;;;;;16.53;86.55;98939.44;4172239;83;21005;-81
2021/08/17 12:15:50;;;;;;;3.42;1.67;;;;;;;16.60;86.64;98949.03;4168894;83;21033;-81
2021/08/17 12:21:51;;;;;;;2.62;1.65;;;;;;;16.57;86.09;98956.15;4168353;83;21104;-82
2021/08/17 12:27:58;;;;;;;5.67;1.80;;;;;;;16.69;85.67;98958.38;4173560;83;22193;-83
2021/08/17 12:34:07;;;;;;;2.55;1.77;;;;;;;16.95;84.92;98947.91;4160594;83;20982;-81
2021/08/17 12:40:12;;;;;;;3.98;2.15;;;;;;;17.09;84.43;98955.98;4165302;83;21562;-82
2021/08/17 12:46:16;;;;;;;3.33;2.00;;;;;;;17.11;84.00;98956.95;4172309;83;21024;-81
2021/08/17 12:52:39;;;;;;;5.67;2.45;;;;;;;17.02;83.78;98952.55;4170259;83;21576;-81
2021/08/17 12:58:46;;;;;;;5.72;2.40;;;;;;;16.89;83.89;98963.41;4175160;83;21046;-82
2021/08/17 13:04:47;;;;;;;4.97;2.87;;;;;;;16.78;82.83;98959.22;4174196;83;20985;-82
2021/08/17 13:10:48;;;;;;;6.78;2.12;;;;;;;16.79;82.59;98961.56;4168502;83;21002;-81
2021/08/17 13:16:49;;;;;;;6.12;2.50;;;;;;;16.93;82.31;98960.56;4163139;83;21083;-81
2021/08/17 13:22:53;;;;;;;5.78;2.33;;;;;;;17.04;80.62;98954.28;4169952;83;20992;-81
2021/08/17 13:28:54;;;;;;;4.05;1.75;;;;;;;17.14;81.24;98951.37;4168756;83;21620;-81
2021/08/17 13:34:56;;;;;;;5.33;2.08;;;;;;;17.11;80.75;98941.15;4172340;83;21418;-82
2021/08/17 13:40:57;;;;;;;4.30;2.15;;;;;;;17.02;80.92;98951.17;4172457;83;21584;-81
2021/08/17 13:46:58;;;;;;;4.78;2.25;;;;;;;16.95;80.88;98953.44;4177884;83;21023;-81
2021/08/17 13:53:00;;;;;;;3.77;2.30;;;;;;;16.96;80.55;98963.29;4163196;83;21084;-81
2021/08/17 13:59:01;;;;;;;4.17;2.45;;;;;;;16.94;80.93;98958.01;4168483;83;21009;-81
2021/08/17 14:05:03;;;;;;;5.45;2.27;;;;;;;16.92;81.02;98956.25;4167733;83;21466;-81
2021/08/17 14:11:05;;;;;;;6.67;2.52;;;;;;;16.93;80.37;98960.56;4167920;83;21060;-81
2021/08/17 14:17:06;;;;;;;5.40;2.55;;;;;;;16.93;80.09;98950.89;4163582;83;21588;-81
2021/08/17 14:23:07;;;;;;;4.08;2.40;;;;;;;17.05;80.38;98957.25;4161340;83;21051;-81
2021/08/17 14:29:09;;;;;;;15.63;8.20;;;;;;;17.23;80.31;98947.46;4180599;83;21407;-83
2021/08/17 14:35:11;;;;;;;7.95;3.10;;;;;;;17.32;79.99;98937.23;4178038;83;21060;-81
2021/08/17 14:41:12;;;;;;;7.75;2.70;;;;;;;17.31;79.47;98940.41;4160297;83;21371;-82
2021/08/17 14:47:14;;;;;;;4.92;2.65;;;;;;;17.26;79.97;98938.15;4162890;83;21061;-82
2021/08/17 14:53:16;;;;;;;5.87;3.00;;;;;;;17.26;80.37;98934.77;4167281;83;21049;-81
2021/08/17 14:59:18;;;;;;;4.25;2.75;;;;;;;17.33;80.68;98940.78;4179372;83;21036;-82
2021/08/17 15:05:20;;;;;;;6.65;3.17;;;;;;;17.41;79.57;98940.84;4178039;83;21595;-82
2021/08/17 15:11:21;;;;;;;5.08;3.30;;;;;;;17.40;80.45;98940.67;4162070;83;21119;-81
2021/08/17 15:17:23;;;;;;;4.28;2.90;;;;;;;17.37;80.08;98942.91;4176778;83;21086;-81
2021/08/17 15:23:24;;;;;;;8.10;3.80;;;;;;;17.35;79.65;98946.69;4164869;83;21038;-81
2021/08/17 15:29:25;;;;;;;4.05;3.35;;;;;;;17.47;79.91;98949.66;4160358;83;21607;-82
2021/08/17 15:35:27;;;;;;;7.47;3.33;;;;;;;17.53;78.75;98936.11;4166071;83;21577;-82
2021/08/17 15:41:28;;;;;;;5.17;3.77;;;;;;;17.50;78.52;98932.22;4169689;83;21026;-83
2021/08/17 15:47:29;;;;;;;8.28;3.80;;;;;;;17.47;78.31;98932.27;4171461;83;21063;-82
2021/08/17 15:53:30;;;;;;;4.83;3.47;;;;;;;17.41;78.29;98931.16;4164438;83;21518;-82
2021/08/17 15:59:32;;;;;;;4.40;3.10;;;;;;;17.42;78.45;98940.42;4173032;83;21005;-83
2021/08/17 16:05:33;;;;;;;3.52;3.22;;;;;;;17.49;78.02;98929.88;4165326;83;21017;-82
2021/08/17 16:11:36;;;;;;;4.87;3.50;;;;;;;17.46;77.48;98935.63;4161764;83;21060;-83
2021/08/17 16:17:38;;;;;;;4.70;3.35;;;;;;;17.38;77.39;98940.31;4166145;83;21060;-83
2021/08/17 16:23:40;;;;;;;4.47;3.37;;;;;;;17.31;77.50;98945.36;4169584;83;21320;-82
2021/08/17 16:29:41;;;;;;;4.25;3.52;;;;;;;17.25;77.44;98944.27;4170352;83;21005;-81
2021/08/17 16:35:42;;;;;;;3.95;3.00;;;;;;;17.18;77.67;98936.08;4170530;83;21033;-84
2021/08/17 16:41:44;;;;;;;8.10;3.22;;;;;;;17.13;77.01;98934.57;4168581;83;21563;-81
2021/08/17 16:47:46;;;;;;;4.37;3.02;;;;;;;17.07;77.12;98941.00;4178662;83;21115;-80
2021/08/17 16:53:47;;;;;;;7.22;4.25;;;;;;;17.04;77.28;98939.06;4158649;83;21028;-82
2021/08/17 16:59:48;;;;;;;3.90;3.27;;;;;;;16.99;77.26;98942.33;4167578;83;21057;-84
2021/08/17 17:05:49;;;;;;;3.45;2.83;;;;;;;16.91;77.38;98951.94;4170938;83;21048;-85
2021/08/17 17:11:51;;;;;;;7.87;3.40;;;;;;;16.87;76.92;98955.33;4164996;83;21002;-83
2021/08/17 17:17:52;;;;;;;5.60;3.30;;;;;;;16.94;77.22;98959.39;4158280;83;21576;-84
2021/08/17 17:23:53;;;;;;;7.75;3.47;;;;;;;16.87;76.92;98965.80;4163664;83;21056;-82
2021/08/17 17:29:55;;;;;;;8.10;3.30;;;;;;;16.80;77.24;98958.22;4173671;83;21035;-81
2021/08/17 17:35:56;;;;;;;5.85;3.25;;;;;;;16.71;77.51;98950.42;4176422;83;21585;-82
2021/08/17 17:41:58;;;;;;;5.33;3.60;;;;;;;16.70;77.54;98947.48;4162801;83;21024;-81
2021/08/17 17:48:00;;;;;;;7.28;4.03;;;;;;;16.63;77.46;98955.87;4167019;83;20986;-81
2021/08/17 17:54:02;;;;;;;6.85;4.03;;;;;;;16.55;77.85;98951.63;4173595;83;21056;-82
2021/08/17 18:00:05;;;;;;;6.50;3.92;;;;;;;16.43;77.81;98957.69;4177064;83;20978;-85
2021/08/17 18:06:09;;;;;;;6.15;4.05;;;;;;;16.28;78.18;98970.72;4166198;83;21072;-82
2021/08/17 18:12:11;;;;;;;6.95;3.72;;;;;;;16.06;78.48;98969.39;4163719;83;21033;-82
2021/08/17 18:18:12;;;;;;;6.10;3.62;;;;;;;15.92;78.62;98967.58;4160869;83;21068;-81
2021/08/17 18:24:13;;;;;;;6.58;3.65;;;;;;;15.79;78.66;98969.88;4170661;83;21020;-82
2021/08/17 18:30:16;;;;;;;9.20;3.47;;;;;;;15.80;79.20;98975.02;4170837;83;21063;-83
2021/08/17 18:36:18;;;;;;;5.92;3.60;;;;;;;15.69;79.17;98975.71;4172307;83;21028;-81
2021/08/17 18:42:19;;;;;;;6.17;3.90;;;;;;;15.62;79.22;98981.28;4167765;83;21524;-81
2021/08/17 18:48:22;;;;;;;9.73;4.95;;;;;;;15.51;79.81;98978.63;4173732;83;21552;-83
2021/08/17 18:54:23;;;;;;;8.68;4.00;;;;;;;15.45;80.36;98984.98;4171528;83;21072;-82
2021/08/17 19:00:25;;;;;;;7.00;4.10;;;;;;;15.35;80.59;98999.02;4211010;83;21054;-82
2021/08/17 19:06:28;;;;;;;8.53;4.22;;;;;;;15.24;80.13;99002.45;4170806;83;21033;-83
2021/08/17 19:12:32;;;;;;;8.85;3.60;;;;;;;15.17;79.99;99001.73;4171361;83;21080;-81
2021/08/17 19:18:34;;;;;;;8.70;3.65;;;;;;;15.07;80.49;99001.20;4150413;83;21811;-82
2021/08/17 19:24:39;;;;;;;6.90;3.20;;;;;;;15.00;80.77;99003.40;4181216;83;21447;-83
2021/08/17 19:30:40;;;;;;;4.67;2.90;;;;;;;14.92;80.31;99005.24;4171419;83;22022;-82
2021/08/17 19:36:42;;;;;;;9.70;3.22;;;;;;;14.88;80.46;99005.84;4166839;83;21020;-81
2021/08/17 19:42:43;;;;;;;8.10;3.75;;;;;;;14.70;80.42;99010.09;4175935;83;21055;-81
2021/08/17 19:48:44;;;;;;;6.28;3.47;;;;;;;14.62;81.08;99016.83;4171385;83;21040;-81
2021/08/17 19:54:46;;;;;;;4.62;3.12;;;;;;;14.56;80.86;99025.31;4172816;83;21042;-81
2021/08/17 20:00:47;;;;;;;6.12;3.00;;;;;;;14.43;80.66;99026.94;4173280;83;21052;-82
2021/08/17 20:06:48;;;;;;;4.92;2.37;;;;;;;14.39;80.46;99023.42;4176825;83;21015;-81
2021/08/17 20:12:50;;;;;;;3.92;2.20;;;;;;;14.23;80.68;99012.62;4164083;83;21072;-82
2021/08/17 20:18:52;;;;;;;4.60;2.55;;;;;;;14.22;80.96;99011.82;4174797;83;21478;-82
2021/08/17 20:24:53;;;;;;;3.58;2.55;;;;;;;14.20;81.14;99006.72;4172205;83;21865;-82
2021/08/17 20:30:55;;;;;;;4.70;2.60;;;;;;;14.17;81.81;98995.73;4171234;83;21655;-81
2021/08/17 20:36:56;;;;;;;5.37;3.35;;;;;;;14.09;81.35;98999.69;4183051;83;21018;-81
2021/08/17 20:42:58;;;;;;;5.62;2.60;;;;;;;14.02;81.58;99003.24;4173990;83;21975;-82
2021/08/17 20:48:59;;;;;;;7.03;2.85;;;;;;;13.95;81.14;99008.75;4172704;83;21053;-81
2021/08/17 20:55:00;;;;;;;5.75;3.22;;;;;;;13.99;81.31;99006.00;4159681;83;21063;-82
2021/08/17 21:01:03;;;;;;;5.55;2.83;;;;;;;13.94;81.57;99003.64;4157712;83;21053;-81
2021/08/17 21:07:04;;;;;;;5.42;3.02;;;;;;;13.95;81.89;99006.61;4176029;83;21005;-81
2021/08/17 21:13:06;;;;;;;5.50;3.50;;;;;;;13.91;81.40;98992.05;4171324;83;21538;-81
2021/08/17 21:19:07;;;;;;;6.65;3.10;;;;;;;13.88;81.42;98985.97;4172358;83;21360;-80
2021/08/17 21:25:11;;;;;;;4.30;2.92;;;;;;;13.87;81.87;98987.16;4169261;83;21065;-81
2021/08/17 21:31:13;;;;;;;5.00;2.98;;;;;;;13.76;81.72;98977.56;4174604;83;21107;-81
2021/08/17 21:37:15;;;;;;;5.58;3.25;;;;;;;13.67;81.63;98977.77;4174352;83;21571;-80
2021/08/17 21:43:16;;;;;;;5.22;3.70;;;;;;;13.64;81.38;98991.70;4170763;83;21033;-81
2021/08/17 21:49:18;;;;;;;7.70;3.42;;;;;;;13.63;81.09;98984.65;4160855;83;21039;-84
2021/08/17 21:55:19;;;;;;;5.58;3.30;;;;;;;13.62;81.13;98984.47;4159441;83;21051;-81
2021/08/17 22:01:20;;;;;;;5.17;2.98;;;;;;;13.61;81.25;98987.58;4165150;83;21072;-82
2021/08/17 22:07:22;;;;;;;10.88;3.45;;;;;;;13.61;82.08;98976.00;4171958;83;21131;-81
2021/08/17 22:13:23;;;;;;;6.67;3.60;;;;;;;13.54;82.46;98978.77;4168230;83;21072;-81
2021/08/17 22:19:24;;;;;;;6.50;3.20;;;;;;;13.52;82.35;98979.75;4168702;83;21595;-81
2021/08/17 22:25:26;;;;;;;9.18;3.60;;;;;;;13.41;82.27;98961.67;4171605;83;21572;-81
2021/08/17 22:31:27;;;;;;;5.62;3.10;;;;;;;13.22;82.46;98949.13;4169742;83;21052;-81
2021/08/17 22:37:28;;;;;;;5.25;2.70;;;;;;;13.20;82.59;98951.47;4168517;83;21608;-81
2021/08/17 22:43:31;;;;;;;4.70;3.08;;;;;;;13.08;82.90;98946.38;4163097;83;21407;-80
2021/08/17 22:49:33;;;;;;;4.95;3.10;;;;;;;13.16;83.25;98944.41;4175560;83;22228;-81
2021/08/17 22:55:34;;;;;;;5.87;3.40;;;;;;;13.13;83.35;98944.61;4175430;83;21053;-81
2021/08/17 23:01:35;;;;;;;10.55;3.50;;;;;;;13.10;83.35;98937.73;4167968;83;21462;-81
2021/08/17 23:07:36;;;;;;;9.08;3.00;;;;;;;13.05;83.39;98931.25;4172518;83;20970;-81
2021/08/17 23:13:38;;;;;;;5.95;3.45;;;;;;;13.09;83.81;98938.92;4167840;83;21632;-81
2021/08/17 23:19:43;;;;;;;6.45;2.95;;;;;;;13.00;83.30;98942.63;4175423;83;21085;-81
2021/08/17 23:25:44;;;;;;;4.95;3.27;;;;;;;12.79;83.60;98955.75;4172906;83;21066;-81
2021/08/17 23:31:45;;;;;;;5.60;3.02;;;;;;;12.79;84.05;98954.38;4168762;83;21057;-82
2021/08/17 23:37:46;;;;;;;5.92;2.90;;;;;;;12.72;83.99;98948.09;4161014;83;21058;-84
2021/08/17 23:43:48;;;;;;;4.47;2.52;;;;;;;12.59;83.79;98962.77;4162298;83;21047;-81
2021/08/17 23:49:49;;;;;;;5.67;2.95;;;;;;;12.61;84.62;98971.39;4170029;83;21030;-81
2021/08/17 23:55:52;;;;;;;7.10;3.12;;;;;;;12.63;84.44;98970.42;4159808;83;21675;-81
